Chokoloskee, Florida
Current Conditions -  °F | °C
As of 4:14 AM on Thursday 23 Oct 2014 (Local Time) from KAPF Reporting Station
Broken Clouds Broken Clouds  
Wind Chill: 74°   Ceiling: 1900
Heat Index: 74°   Visibility: 10mi
Dew Point: 70°   Wind: 9mph
Humidity: 87%   Direction: 20°NNE
Pressure: 29.88"   Gusts: NA
Location:  25.81°N, 81.36°W
Report Text: KAPF 230814Z AUTO 02008KT 10SM BKN019 23/21 A2988 RMK AO2 T02330211
Loading
Personal Weather Stations






























Interactive Weather Map
Tropical Storm Tracking
New forecast layout! Learn more

10-Day Weather Forecast

Advertisements
Track Severe Weather on mobile